createdAt,value
2023-04-05T00:01:12.397Z,47.41
2023-04-05T00:06:20.280Z,47.31
2023-04-05T00:11:23.503Z,47.61
2023-04-05T00:16:28.915Z,47.54
2023-04-05T00:21:33.137Z,47.31
2023-04-05T00:26:36.290Z,48.24
2023-04-05T00:31:40.551Z,48.71
2023-04-05T00:36:43.383Z,48.59
2023-04-05T00:41:48.613Z,49.28
2023-04-05T00:46:52.985Z,49.18
2023-04-05T00:51:56.055Z,49.55
2023-04-05T00:56:59.551Z,50.04
2023-04-05T01:02:09.536Z,50.83
2023-04-05T01:07:20.090Z,51.68
2023-04-05T01:12:26.211Z,51.05
2023-04-05T01:17:37.455Z,50.45
2023-04-05T01:23:25.016Z,50.76
2023-04-05T01:28:57.657Z,50.55
2023-04-05T01:34:09.206Z,50.94
2023-04-05T01:39:16.284Z,51.59
2023-04-05T01:44:19.139Z,51.36
2023-04-05T01:49:24.411Z,51.25
2023-04-05T01:54:28.392Z,51.87
2023-04-05T01:59:31.376Z,52.37
2023-04-05T02:04:39.419Z,54.31
2023-04-05T02:09:42.187Z,53.18
2023-04-05T02:14:45.031Z,53.80
2023-04-05T02:19:49.842Z,54.16
2023-04-05T02:24:52.609Z,53.93
2023-04-05T02:29:55.785Z,54.32
2023-04-05T02:34:59.918Z,54.37
2023-04-05T02:40:08.098Z,55.31
2023-04-05T02:45:13.496Z,55.09
2023-04-05T02:50:20.548Z,55.69
2023-04-05T02:55:23.416Z,55.12
2023-04-05T03:00:26.340Z,54.77
2023-04-05T03:05:33.257Z,54.69
2023-04-05T03:10:39.036Z,55.14
2023-04-05T03:15:49.431Z,54.92
2023-04-05T03:20:56.850Z,55.32
2023-04-05T03:26:01.301Z,54.96
2023-04-05T03:31:07.780Z,55.30
2023-04-05T03:36:16.420Z,55.02
2023-04-05T03:41:20.845Z,55.23
2023-04-05T03:46:26.158Z,55.53
2023-04-05T03:51:32.662Z,55.07
2023-04-05T03:56:35.598Z,55.22
2023-04-05T04:01:46.861Z,54.03
2023-04-05T04:06:52.423Z,53.22
2023-04-05T04:11:59.786Z,53.53
2023-04-05T04:17:03.335Z,54.20
2023-04-05T04:22:20.659Z,53.93
2023-04-05T04:27:44.837Z,53.37
2023-04-05T04:33:09.220Z,53.04
2023-04-05T04:38:20.442Z,53.31
2023-04-05T04:43:43.951Z,55.26
2023-04-05T04:49:10.382Z,53.74
2023-04-05T04:54:16.816Z,52.92
2023-04-05T04:59:19.757Z,53.31
2023-04-05T05:04:22.860Z,52.20
2023-04-05T05:09:27.280Z,54.49
2023-04-05T05:14:33.805Z,55.42
2023-04-05T05:19:36.608Z,56.32
2023-04-05T05:24:41.352Z,58.22
2023-04-05T05:29:44.258Z,59.24
2023-04-05T05:34:48.625Z,58.55
2023-04-05T05:39:52.818Z,58.99
2023-04-05T05:44:55.624Z,58.49
2023-04-05T05:49:58.737Z,57.12
2023-04-05T05:55:02.864Z,55.96
2023-04-05T06:00:09.417Z,55.30
2023-04-05T06:05:14.466Z,54.32
2023-04-05T06:10:18.770Z,49.64
2023-04-05T06:15:21.524Z,48.57
2023-04-05T06:20:24.281Z,49.09
2023-04-05T06:25:28.512Z,47.43
2023-04-05T06:30:31.588Z,42.36
2023-04-05T06:35:34.334Z,39.35
2023-04-05T06:40:38.874Z,35.52
2023-04-05T06:45:41.776Z,33.52
2023-04-05T06:50:44.547Z,31.55
2023-04-05T06:55:51.546Z,32.62
2023-04-05T07:00:54.861Z,30.95
2023-04-05T07:06:00.122Z,33.08
2023-04-05T07:11:04.260Z,33.19
2023-04-05T07:16:07.528Z,31.28
2023-04-05T07:21:10.344Z,34.75
2023-04-05T07:26:14.456Z,35.27
2023-04-05T07:31:17.488Z,36.20
2023-04-05T07:36:20.462Z,31.79
2023-04-05T07:41:26.513Z,27.67
2023-04-05T07:46:30.013Z,27.15
2023-04-05T07:51:36.168Z,25.89
2023-04-05T07:56:40.582Z,25.40
2023-04-05T08:01:43.409Z,29.87
2023-04-05T08:06:46.899Z,31.51
2023-04-05T08:11:51.007Z,31.36
2023-04-05T08:16:53.815Z,32.21
2023-04-05T08:21:56.586Z,35.07
2023-04-05T08:27:00.944Z,35.61
2023-04-05T08:32:04.414Z,34.98
2023-04-05T08:37:07.624Z,35.52
2023-04-05T08:42:16.792Z,35.41
2023-04-05T08:47:20.701Z,33.48
2023-04-05T08:52:23.718Z,34.89
2023-04-05T08:57:30.313Z,35.88
2023-04-05T09:02:34.588Z,35.55
2023-04-05T09:07:38.587Z,35.16
2023-04-05T09:12:43.283Z,35.27
2023-04-05T09:17:46.506Z,35.01
2023-04-05T09:22:49.390Z,32.71
2023-04-05T09:27:57.322Z,31.25
2023-04-05T09:33:00.298Z,30.45
2023-04-05T09:38:05.176Z,32.44
2023-04-05T09:43:11.828Z,32.52
2023-04-05T09:48:14.610Z,32.48
2023-04-05T09:53:18.723Z,30.74
2023-04-05T09:58:25.753Z,30.74
2023-04-05T10:03:31.147Z,31.31
2023-04-05T10:08:34.284Z,30.87
2023-04-05T10:13:40.576Z,30.16
2023-04-05T10:18:50.521Z,31.12
2023-04-05T10:24:01.477Z,31.36
2023-04-05T10:29:13.189Z,28.91
2023-04-05T10:34:25.508Z,28.50
2023-04-05T10:39:30.428Z,29.05
2023-04-05T10:44:37.478Z,28.74
2023-04-05T10:49:43.297Z,28.51
2023-04-05T10:54:46.497Z,29.49
2023-04-05T10:59:52.514Z,29.75
2023-04-05T11:04:56.892Z,30.72
2023-04-05T11:10:02.744Z,29.58
2023-04-05T11:15:34.393Z,27.77
2023-04-05T11:20:56.165Z,29.64
2023-04-05T11:26:06.739Z,29.29
2023-04-05T11:31:19.121Z,30.24
2023-04-05T11:36:33.516Z,30.14
2023-04-05T11:41:36.245Z,28.60
2023-04-05T11:46:41.335Z,28.43
2023-04-05T11:51:48.577Z,30.93
2023-04-05T11:56:53.059Z,28.96
2023-04-05T12:02:01.272Z,28.44
2023-04-05T12:07:11.698Z,28.41
2023-04-05T12:12:17.729Z,27.26
2023-04-05T12:17:39.240Z,26.75
2023-04-05T12:22:43.389Z,29.31
2023-04-05T12:27:46.748Z,30.29
2023-04-05T12:32:52.610Z,30.18
2023-04-05T12:38:00.917Z,32.42
2023-04-05T12:43:05.041Z,32.58
2023-04-05T12:48:11.764Z,32.61
2023-04-05T12:53:20.194Z,33.48
2023-04-05T12:58:25.050Z,34.86
2023-04-05T13:03:29.375Z,35.39
2023-04-05T13:08:32.245Z,33.72
2023-04-05T13:13:35.259Z,35.32
2023-04-05T13:18:39.511Z,34.70
2023-04-05T13:23:42.657Z,34.88
2023-04-05T13:28:48.229Z,32.29
2023-04-05T13:33:52.738Z,31.17
2023-04-05T13:38:55.463Z,31.35
2023-04-05T13:44:01.118Z,31.89
2023-04-05T13:49:06.146Z,32.22
2023-04-05T13:54:28.058Z,31.73
2023-04-05T13:59:31.622Z,32.44
2023-04-05T14:04:35.931Z,34.29
2023-04-05T14:09:38.760Z,34.28
2023-04-05T14:14:43.093Z,34.35
2023-04-05T14:19:49.961Z,33.87
2023-04-05T14:25:02.831Z,34.81
2023-04-05T14:30:59.531Z,33.64
2023-04-05T14:36:11.569Z,32.75
2023-04-05T14:41:20.527Z,32.10
2023-04-05T14:46:23.895Z,32.62
2023-04-05T14:51:37.268Z,33.25
2023-04-05T14:56:40.358Z,31.87
2023-04-05T15:01:45.584Z,32.27
2023-04-05T15:06:50.003Z,32.28
2023-04-05T15:11:56.032Z,32.56
2023-04-05T15:16:59.392Z,32.36
2023-04-05T15:22:24.467Z,32.76
2023-04-05T15:27:27.774Z,33.08
2023-04-05T15:32:42.170Z,32.73
2023-04-05T15:37:58.644Z,34.87
2023-04-05T15:48:34.105Z,35.34
2023-04-05T15:53:46.452Z,35.89
2023-04-05T15:59:00.854Z,36.06
2023-04-05T16:04:11.795Z,35.76
2023-04-05T16:09:16.366Z,36.62
2023-04-05T16:14:19.292Z,36.11
2023-04-05T16:19:23.484Z,36.41
2023-04-05T16:24:30.321Z,35.80
2023-04-05T16:29:33.307Z,37.74
2023-04-05T16:34:50.583Z,36.69
2023-04-05T16:40:02.935Z,37.40
2023-04-05T16:45:08.022Z,37.04
2023-04-05T16:50:11.660Z,36.24
2023-04-05T16:55:15.871Z,37.25
2023-04-05T17:00:19.082Z,36.81
2023-04-05T17:05:22.042Z,37.16
2023-04-05T17:10:53.581Z,38.81
2023-04-05T17:15:56.487Z,38.78
2023-04-05T17:20:59.488Z,39.14
2023-04-05T17:26:04.202Z,38.95
2023-04-05T17:31:07.300Z,39.51
2023-04-05T17:36:29.744Z,40.57
2023-04-05T17:41:40.205Z,40.89
2023-04-05T17:47:01.291Z,41.50
2023-04-05T17:52:56.040Z,42.50
2023-04-05T17:58:08.811Z,42.89
2023-04-05T18:29:51.647Z,43.71
2023-04-05T19:22:17.683Z,38.61
2023-04-05T19:47:50.324Z,38.76
2023-04-05T19:53:02.910Z,39.42
2023-04-05T20:04:39.015Z,39.87
2023-04-05T20:10:58.210Z,40.51
2023-04-05T20:16:01.321Z,40.22
2023-04-05T20:21:05.873Z,40.46
2023-04-05T20:26:45.781Z,40.75
2023-04-05T20:31:54.278Z,41.00
2023-04-05T20:37:01.610Z,41.51
2023-04-05T20:42:10.305Z,41.11
2023-04-05T20:47:13.578Z,41.22
2023-04-05T20:52:18.120Z,40.36
2023-04-05T20:57:20.999Z,40.07
2023-04-05T21:02:31.364Z,40.39
2023-04-05T21:07:36.981Z,40.20
2023-04-05T21:12:40.010Z,40.95
2023-04-05T21:23:32.791Z,41.09
2023-04-05T21:28:36.866Z,40.18
2023-04-05T21:33:47.186Z,40.81
2023-04-05T21:38:51.509Z,41.00
2023-04-05T21:44:33.409Z,40.80
2023-04-05T21:50:09.368Z,41.33
2023-04-05T21:55:47.423Z,41.28
2023-04-05T22:00:53.364Z,41.41
2023-04-05T22:05:56.219Z,41.75
2023-04-05T22:11:54.727Z,41.50
2023-04-05T22:17:01.329Z,42.30
2023-04-05T22:22:04.776Z,42.45
2023-04-05T22:27:09.243Z,43.08
2023-04-05T22:32:14.947Z,43.94
2023-04-05T22:37:17.813Z,44.10
2023-04-05T22:42:22.058Z,44.32
2023-04-05T22:47:24.958Z,44.37
2023-04-05T22:52:27.890Z,44.15
2023-04-05T22:57:32.462Z,43.53
2023-04-05T23:02:35.437Z,43.68
2023-04-05T23:07:38.356Z,44.41
2023-04-05T23:12:43.802Z,44.13
2023-04-05T23:17:46.910Z,44.79
2023-04-05T23:22:54.454Z,44.43
2023-04-05T23:27:58.712Z,44.54
2023-04-05T23:33:02.877Z,45.76
2023-04-05T23:38:07.173Z,46.12
2023-04-05T23:43:12.046Z,47.11
2023-04-05T23:48:14.988Z,47.29
2023-04-05T23:53:17.966Z,48.31
2023-04-05T23:58:22.332Z,49.80
